HB1872 LSZR-LSZR
Flight info
| Callsign | HB1872 |
|---|---|
| Flight time | 0h 27m |
| Altitude | 6000 |
| Route | LSZR |
| Aircraft | S12S/L-V/N |
Departure
| Time | 2026-05-05 14:30 |
|---|---|
| Airport | Sankt Gallen Altenrhein Airport (LSZR) |
Arrival
| Time | 2026-05-05 14:57 |
|---|---|
| Airport | Sankt Gallen Altenrhein Airport (LSZR) |
| Time | Latitude | Longitude | Altitude | Speed | Heading |
|---|---|---|---|---|---|
| 2026-05-05 14:22 | 47.48603 | 9.56878 | 1309 ft | 0 kts | 279° |
| 2026-05-05 14:25 | 47.48603 | 9.56875 | 1309 ft | 2 kts | 281° |
| 2026-05-05 14:25 | 47.48602 | 9.56858 | 1309 ft | 3 kts | 227° |
| 2026-05-05 14:25 | 47.48595 | 9.56853 | 1309 ft | 0 kts | 183° |
| 2026-05-05 14:28 | 47.48566 | 9.56851 | 1309 ft | 5 kts | 183° |
| 2026-05-05 14:28 | 47.48547 | 9.56840 | 1309 ft | 0 kts | 233° |
| 2026-05-05 14:29 | 47.48535 | 9.56812 | 1309 ft | 5 kts | 238° |
| 2026-05-05 14:29 | 47.48532 | 9.56786 | 1309 ft | 0 kts | 279° |
| 2026-05-05 14:30 | 47.48547 | 9.56657 | 1309 ft | 35 kts | 281° |
| 2026-05-05 14:30 | 47.48590 | 9.56144 | 1438 ft | 54 kts | 274° |
| 2026-05-05 14:30 | 47.48654 | 9.55593 | 1709 ft | 52 kts | 284° |
| 2026-05-05 14:30 | 47.48717 | 9.55052 | 1961 ft | 59 kts | 271° |
| 2026-05-05 14:31 | 47.48389 | 9.54918 | 2112 ft | 93 kts | 111° |
| 2026-05-05 14:31 | 47.48277 | 9.55815 | 2371 ft | 86 kts | 97° |
| 2026-05-05 14:31 | 47.48188 | 9.56738 | 2585 ft | 92 kts | 98° |
| 2026-05-05 14:31 | 47.48136 | 9.57657 | 2887 ft | 81 kts | 88° |
| 2026-05-05 14:32 | 47.48141 | 9.58441 | 3179 ft | 77 kts | 95° |
| 2026-05-05 14:32 | 47.48096 | 9.59248 | 3428 ft | 79 kts | 95° |
| 2026-05-05 14:32 | 47.48085 | 9.60069 | 3674 ft | 82 kts | 84° |
| 2026-05-05 14:32 | 47.48008 | 9.60885 | 3930 ft | 80 kts | 111° |
| 2026-05-05 14:33 | 47.47814 | 9.61636 | 4223 ft | 76 kts | 117° |
| 2026-05-05 14:33 | 47.47587 | 9.62371 | 4470 ft | 80 kts | 121° |
| 2026-05-05 14:33 | 47.47346 | 9.63088 | 4727 ft | 76 kts | 121° |
| 2026-05-05 14:33 | 47.47053 | 9.63763 | 4967 ft | 76 kts | 126° |
| 2026-05-05 14:34 | 47.46850 | 9.64501 | 5104 ft | 90 kts | 77° |
| 2026-05-05 14:34 | 47.47275 | 9.65043 | 5236 ft | 88 kts | 6° |
| 2026-05-05 14:34 | 47.47826 | 9.65164 | 5486 ft | 80 kts | 354° |
| 2026-05-05 14:34 | 47.48338 | 9.65133 | 5811 ft | 65 kts | 344° |
| 2026-05-05 14:35 | 47.48762 | 9.64828 | 5946 ft | 76 kts | 301° |
| 2026-05-05 14:35 | 47.48835 | 9.64091 | 6116 ft | 76 kts | 243° |
| 2026-05-05 14:35 | 47.48616 | 9.63471 | 6460 ft | 57 kts | 242° |
| 2026-05-05 14:35 | 47.48417 | 9.62956 | 6710 ft | 61 kts | 232° |
| 2026-05-05 14:36 | 47.48025 | 9.62635 | 6851 ft | 75 kts | 192° |
| 2026-05-05 14:36 | 47.47585 | 9.62422 | 7113 ft | 62 kts | 224° |
| 2026-05-05 14:36 | 47.47246 | 9.62053 | 7329 ft | 59 kts | 214° |
| 2026-05-05 14:36 | 47.46873 | 9.61787 | 7524 ft | 60 kts | 210° |
| 2026-05-05 14:37 | 47.46446 | 9.61780 | 7663 ft | 79 kts | 142° |
| 2026-05-05 14:37 | 47.46399 | 9.62600 | 7825 ft | 94 kts | 62° |
| 2026-05-05 14:37 | 47.46940 | 9.63047 | 8018 ft | 86 kts | 15° |
| 2026-05-05 14:37 | 47.47541 | 9.63020 | 8150 ft | 85 kts | 337° |
| 2026-05-05 14:38 | 47.48023 | 9.62730 | 8432 ft | 74 kts | 313° |
| 2026-05-05 14:38 | 47.48454 | 9.62291 | 8681 ft | 72 kts | 308° |
| 2026-05-05 14:38 | 47.48732 | 9.61732 | 8893 ft | 66 kts | 264° |
| 2026-05-05 14:38 | 47.48528 | 9.61223 | 9119 ft | 62 kts | 210° |
| 2026-05-05 14:39 | 47.48082 | 9.61252 | 9355 ft | 63 kts | 164° |
| 2026-05-05 14:39 | 47.47689 | 9.61567 | 9556 ft | 67 kts | 159° |
| 2026-05-05 14:39 | 47.47330 | 9.62032 | 9776 ft | 67 kts | 149° |
| 2026-05-05 14:39 | 47.47004 | 9.62511 | 9961 ft | 67 kts | 151° |
| 2026-05-05 14:40 | 47.46666 | 9.63007 | 10116 ft | 70 kts | 152° |
| 2026-05-05 14:40 | 47.46312 | 9.63502 | 10291 ft | 69 kts | 149° |
| 2026-05-05 14:40 | 47.45910 | 9.63898 | 10303 ft | 76 kts | 177° |
| 2026-05-05 14:40 | 47.45411 | 9.63853 | 10404 ft | 69 kts | 194° |
| 2026-05-05 14:41 | 47.44958 | 9.63774 | 10601 ft | 62 kts | 191° |
| 2026-05-05 14:41 | 47.44479 | 9.63737 | 10636 ft | 77 kts | 186° |
| 2026-05-05 14:41 | 47.43902 | 9.63809 | 10560 ft | 89 kts | 182° |
| 2026-05-05 14:41 | 47.43265 | 9.63887 | 10433 ft | 93 kts | 180° |
| 2026-05-05 14:42 | 47.42635 | 9.64075 | 10327 ft | 94 kts | 171° |
| 2026-05-05 14:42 | 47.42015 | 9.64418 | 10198 ft | 94 kts | 174° |
| 2026-05-05 14:42 | 47.41373 | 9.64452 | 10067 ft | 90 kts | 193° |
| 2026-05-05 14:42 | 47.40802 | 9.64247 | 10082 ft | 80 kts | 196° |
| 2026-05-05 14:43 | 47.40325 | 9.64138 | 10080 ft | 60 kts | 193° |
| 2026-05-05 14:43 | 47.39960 | 9.64057 | 10137 ft | 47 kts | 197° |
| 2026-05-05 14:43 | 47.39648 | 9.63943 | 10130 ft | 49 kts | 197° |
| 2026-05-05 14:43 | 47.39309 | 9.63835 | 10133 ft | 51 kts | 193° |
| 2026-05-05 14:44 | 47.38943 | 9.63780 | 10159 ft | 51 kts | 192° |
| 2026-05-05 14:44 | 47.38588 | 9.63697 | 10156 ft | 55 kts | 193° |
| 2026-05-05 14:44 | 47.38620 | 9.63154 | 10063 ft | 108 kts | 329° |
| 2026-05-05 14:44 | 47.39470 | 9.62932 | 9853 ft | 132 kts | 344° |
| 2026-05-05 14:45 | 47.40361 | 9.62717 | 9810 ft | 131 kts | 346° |
| 2026-05-05 14:45 | 47.40634 | 9.62676 | 9643 ft | 75 kts | 98° |
| 2026-05-05 14:45 | 47.40793 | 9.63694 | 9806 ft | 86 kts | 76° |
| 2026-05-05 14:45 | 47.41099 | 9.64375 | 9831 ft | 81 kts | 48° |
| 2026-05-05 14:46 | 47.41696 | 9.64475 | 9482 ft | 108 kts | 325° |
| 2026-05-05 14:46 | 47.42238 | 9.64081 | 9591 ft | 86 kts | 316° |
| 2026-05-05 14:46 | 47.42840 | 9.63485 | 9319 ft | 108 kts | 313° |
| 2026-05-05 14:46 | 47.43363 | 9.62914 | 9412 ft | 89 kts | 308° |
| 2026-05-05 14:47 | 47.43862 | 9.62191 | 9139 ft | 108 kts | 298° |
| 2026-05-05 14:47 | 47.44210 | 9.61686 | 9372 ft | 11 kts | 347° |
| 2026-05-05 14:47 | 47.44316 | 9.61731 | 8081 ft | 18 kts | 251° |
| 2026-05-05 14:47 | 47.44247 | 9.61579 | 7010 ft | 26 kts | 170° |
| 2026-05-05 14:48 | 47.44219 | 9.61910 | 5983 ft | 44 kts | 28° |
| 2026-05-05 14:48 | 47.44423 | 9.61966 | 4989 ft | 29 kts | 303° |
| 2026-05-05 14:48 | 47.44491 | 9.61770 | 4092 ft | 24 kts | 266° |
| 2026-05-05 14:48 | 47.44392 | 9.61576 | 3299 ft | 40 kts | 205° |
| 2026-05-05 14:49 | 47.44023 | 9.61792 | 2519 ft | 96 kts | 139° |
| 2026-05-05 14:49 | 47.43547 | 9.62584 | 2433 ft | 96 kts | 117° |
| 2026-05-05 14:49 | 47.43518 | 9.63429 | 2479 ft | 82 kts | 63° |
| 2026-05-05 14:49 | 47.43886 | 9.64051 | 2568 ft | 77 kts | 15° |
| 2026-05-05 14:50 | 47.44379 | 9.64089 | 2597 ft | 69 kts | 343° |
| 2026-05-05 14:50 | 47.44759 | 9.63802 | 2660 ft | 61 kts | 304° |
| 2026-05-05 14:50 | 47.45119 | 9.63423 | 2653 ft | 63 kts | 327° |
| 2026-05-05 14:50 | 47.45464 | 9.63076 | 2679 ft | 61 kts | 316° |
| 2026-05-05 14:51 | 47.45720 | 9.62593 | 2717 ft | 56 kts | 297° |
| 2026-05-05 14:51 | 47.45914 | 9.62048 | 2659 ft | 64 kts | 300° |
| 2026-05-05 14:51 | 47.46189 | 9.61580 | 2631 ft | 58 kts | 313° |
| 2026-05-05 14:51 | 47.46525 | 9.61270 | 2541 ft | 58 kts | 322° |
| 2026-05-05 14:52 | 47.46891 | 9.60930 | 2473 ft | 64 kts | 317° |
| 2026-05-05 14:52 | 47.47202 | 9.60466 | 2453 ft | 62 kts | 304° |
| 2026-05-05 14:52 | 47.47473 | 9.59941 | 2386 ft | 64 kts | 305° |
| 2026-05-05 14:52 | 47.47775 | 9.59446 | 2331 ft | 66 kts | 313° |
| 2026-05-05 14:53 | 47.48091 | 9.58954 | 2290 ft | 67 kts | 308° |
| 2026-05-05 14:53 | 47.48365 | 9.58377 | 2232 ft | 70 kts | 300° |
| 2026-05-05 14:53 | 47.48588 | 9.57734 | 2211 ft | 67 kts | 294° |
| 2026-05-05 14:53 | 47.48764 | 9.57142 | 2234 ft | 61 kts | 289° |
| 2026-05-05 14:54 | 47.48958 | 9.56582 | 2235 ft | 61 kts | 299° |
| 2026-05-05 14:54 | 47.49113 | 9.56219 | 2240 ft | 61 kts | 300° |
| 2026-05-05 14:54 | 47.49296 | 9.55655 | 2205 ft | 63 kts | 285° |
| 2026-05-05 14:54 | 47.49288 | 9.55010 | 2161 ft | 65 kts | 252° |
| 2026-05-05 14:55 | 47.48903 | 9.54259 | 2063 ft | 75 kts | 218° |
| 2026-05-05 14:55 | 47.48549 | 9.54144 | 2070 ft | 78 kts | 167° |
| 2026-05-05 14:55 | 47.48329 | 9.54848 | 2054 ft | 83 kts | 95° |
| 2026-05-05 14:55 | 47.48281 | 9.55728 | 1897 ft | 90 kts | 95° |
| 2026-05-05 14:56 | 47.48207 | 9.56628 | 1848 ft | 82 kts | 94° |
| 2026-05-05 14:56 | 47.48140 | 9.57484 | 1670 ft | 86 kts | 97° |
| 2026-05-05 14:56 | 47.48045 | 9.58280 | 1714 ft | 74 kts | 101° |
| 2026-05-05 14:56 | 47.47977 | 9.59007 | 1702 ft | 69 kts | 90° |
| 2026-05-05 14:57 | 47.47984 | 9.59734 | 1681 ft | 72 kts | 85° |
| 2026-05-05 14:57 | 47.48272 | 9.59933 | 1647 ft | 62 kts | 306° |
| 2026-05-05 14:57 | 47.48269 | 9.59295 | 1587 ft | 60 kts | 269° |
| 2026-05-05 14:57 | 47.48299 | 9.58761 | 1586 ft | 47 kts | 289° |
| 2026-05-05 14:58 | 47.48388 | 9.58284 | 1521 ft | 48 kts | 275° |
| 2026-05-05 14:58 | 47.48444 | 9.57817 | 1445 ft | 47 kts | 277° |
| 2026-05-05 14:58 | 47.48480 | 9.57284 | 1365 ft | 51 kts | 282° |
| 2026-05-05 14:58 | 47.48531 | 9.56814 | 1314 ft | 42 kts | 277° |
| 2026-05-05 14:59 | 47.48569 | 9.56507 | 1309 ft | 13 kts | 273° |
| 2026-05-05 14:59 | 47.48572 | 9.56431 | 1309 ft | 1 kts | 273° |
| 2026-05-05 14:59 | 47.48574 | 9.56422 | 1309 ft | 2 kts | 301° |
| 2026-05-05 14:59 | 47.48598 | 9.56419 | 1309 ft | 7 kts | 45° |
| 2026-05-05 15:00 | 47.48612 | 9.56493 | 1309 ft | 10 kts | 101° |
| 2026-05-05 15:00 | 47.48605 | 9.56562 | 1309 ft | 10 kts | 98° |
| 2026-05-05 15:00 | 47.48585 | 9.56661 | 1309 ft | 6 kts | 139° |
| 2026-05-05 15:00 | 47.48570 | 9.56713 | 1309 ft | 5 kts | 101° |
| 2026-05-05 15:01 | 47.48564 | 9.56758 | 1309 ft | 5 kts | 101° |
| 2026-05-05 15:01 | 47.48558 | 9.56807 | 1309 ft | 5 kts | 101° |
| 2026-05-05 15:01 | 47.48558 | 9.56838 | 1309 ft | 2 kts | 56° |
| 2026-05-05 15:01 | 47.48569 | 9.56847 | 1309 ft | 1 kts | 12° |
| 2026-05-05 15:02 | 47.48589 | 9.56853 | 1309 ft | 4 kts | 22° |
| 2026-05-05 15:02 | 47.48598 | 9.56870 | 1309 ft | 2 kts | 92° |
| 2026-05-05 15:02 | 47.48597 | 9.56879 | 1309 ft | 0 kts | 96° |